createdAt,value
2022-09-13T00:04:04.225Z,70.21
2022-09-13T00:09:07.277Z,70.79
2022-09-13T00:14:10.430Z,70.42
2022-09-13T00:19:14.474Z,70.71
2022-09-13T00:24:17.564Z,71.29
2022-09-13T00:29:20.403Z,71.60
2022-09-13T00:34:24.714Z,74.10
2022-09-13T00:39:27.432Z,79.31
2022-09-13T00:44:55.157Z,85.11
2022-09-13T00:50:03.929Z,89.78
2022-09-13T00:55:13.064Z,91.72
2022-09-13T01:00:19.373Z,92.23
2022-09-13T01:05:27.726Z,89.66
2022-09-13T01:10:31.669Z,90.20
2022-09-13T01:15:34.372Z,93.96
2022-09-13T01:20:54.994Z,96.22
2022-09-13T01:26:32.375Z,96.19
2022-09-13T01:31:43.279Z,96.45
2022-09-13T01:37:09.290Z,97.03
2022-09-13T01:42:19.401Z,96.57
2022-09-13T01:47:28.999Z,96.02
2022-09-13T01:52:41.721Z,95.82
2022-09-13T01:57:51.576Z,96.03
2022-09-13T02:03:04.196Z,95.81
2022-09-13T02:08:12.917Z,94.43
2022-09-13T02:13:20.545Z,93.80
2022-09-13T02:18:30.977Z,93.66
2022-09-13T02:23:39.180Z,92.63
2022-09-13T02:28:43.919Z,94.45
2022-09-13T02:33:53.117Z,93.35
2022-09-13T02:39:01.158Z,93.47
2022-09-13T02:44:10.176Z,93.87
2022-09-13T02:49:19.012Z,95.29
2022-09-13T02:54:28.453Z,95.44
2022-09-13T02:59:31.258Z,95.05
2022-09-13T03:04:36.209Z,94.99
2022-09-13T03:09:47.205Z,96.03
2022-09-13T03:14:57.544Z,97.43
2022-09-13T03:20:10.780Z,97.23
2022-09-13T03:25:25.443Z,97.92
2022-09-13T03:30:28.536Z,98.70
2022-09-13T03:35:39.775Z,99.08
2022-09-13T03:40:49.155Z,98.53
2022-09-13T03:45:55.519Z,100.00
2022-09-13T03:50:59.668Z,99.32
2022-09-13T03:56:03.346Z,99.47
2022-09-13T04:01:06.317Z,100.00
2022-09-13T04:06:11.670Z,100.00
2022-09-13T04:11:14.334Z,98.82
2022-09-13T04:16:17.575Z,100.00
2022-09-13T04:21:21.882Z,100.00
2022-09-13T04:26:24.561Z,100.00
2022-09-13T04:31:27.318Z,100.00
2022-09-13T04:36:32.032Z,100.00
2022-09-13T04:41:34.945Z,100.00
2022-09-13T04:46:37.665Z,100.00
2022-09-13T04:51:41.874Z,100.00
2022-09-13T04:56:45.448Z,100.00
2022-09-13T05:01:48.303Z,100.00
2022-09-13T05:06:52.480Z,100.00
2022-09-13T05:11:55.189Z,100.00
2022-09-13T05:16:57.898Z,100.00
2022-09-13T05:22:02.147Z,100.00
2022-09-13T05:27:05.678Z,100.00
2022-09-13T05:32:08.658Z,100.00
2022-09-13T05:37:12.788Z,100.00
2022-09-13T05:42:15.689Z,100.00
2022-09-13T05:47:18.433Z,100.00
2022-09-13T05:52:22.544Z,100.00
2022-09-13T05:57:25.327Z,100.00
2022-09-13T06:02:28.150Z,100.00
2022-09-13T06:07:32.428Z,100.00
2022-09-13T06:12:35.438Z,100.00
2022-09-13T06:17:38.299Z,100.00
2022-09-13T06:22:42.360Z,100.00
2022-09-13T06:27:45.229Z,100.00
2022-09-13T06:32:47.952Z,100.00
2022-09-13T06:37:52.404Z,100.00
2022-09-13T06:42:55.131Z,100.00
2022-09-13T06:47:58.181Z,100.00
2022-09-13T06:53:02.249Z,100.00
2022-09-13T06:58:05.032Z,100.00
2022-09-13T07:03:07.749Z,100.00
2022-09-13T07:08:11.815Z,100.00
2022-09-13T07:13:14.582Z,99.39
2022-09-13T07:18:17.281Z,95.23
2022-09-13T07:23:21.346Z,92.42
2022-09-13T07:28:27.352Z,91.23
2022-09-13T07:33:30.229Z,97.30
2022-09-13T07:38:35.721Z,99.32
2022-09-13T07:43:38.702Z,91.02
2022-09-13T07:48:43.233Z,90.42
2022-09-13T07:53:48.101Z,92.86
2022-09-13T07:58:52.676Z,96.38
2022-09-13T08:03:57.269Z,91.72
2022-09-13T08:09:01.701Z,93.54
2022-09-13T08:14:05.435Z,94.05
2022-09-13T08:19:09.447Z,96.13
2022-09-13T08:24:17.020Z,96.27
2022-09-13T08:29:19.790Z,95.62
2022-09-13T08:34:22.574Z,92.38
2022-09-13T08:39:29.183Z,87.29
2022-09-13T08:44:46.620Z,84.83
2022-09-13T08:49:53.298Z,84.56
2022-09-13T08:54:58.581Z,79.52
2022-09-13T09:00:09.700Z,78.28
2022-09-13T09:05:18.308Z,76.16
2022-09-13T09:10:27.404Z,75.99
2022-09-13T09:15:35.230Z,76.61
2022-09-13T09:20:42.461Z,75.89
2022-09-13T09:25:47.291Z,74.67
2022-09-13T09:31:00.026Z,69.69
2022-09-13T09:36:11.181Z,66.47
2022-09-13T09:41:27.112Z,65.10
2022-09-13T09:46:35.343Z,64.20
2022-09-13T09:51:38.205Z,65.05
2022-09-13T09:56:53.834Z,61.39
2022-09-13T10:01:57.816Z,60.08
2022-09-13T10:07:20.092Z,59.36
2022-09-13T10:12:29.353Z,56.86
2022-09-13T10:17:32.210Z,58.12
2022-09-13T10:22:34.987Z,58.78
2022-09-13T10:27:43.210Z,59.77
2022-09-13T10:32:56.570Z,58.46
2022-09-13T10:37:59.524Z,54.56
2022-09-13T10:43:08.372Z,52.31
2022-09-13T10:48:14.887Z,50.91
2022-09-13T10:53:34.614Z,51.17
2022-09-13T10:58:38.774Z,50.07
2022-09-13T11:04:04.547Z,49.51
2022-09-13T11:09:14.534Z,48.18
2022-09-13T11:14:32.836Z,49.92
2022-09-13T11:19:59.455Z,50.62
2022-09-13T11:25:14.943Z,50.66
2022-09-13T11:30:21.206Z,48.08
2022-09-13T11:35:44.874Z,49.40
2022-09-13T11:40:56.666Z,48.47
2022-09-13T11:46:09.873Z,48.63
2022-09-13T11:51:19.287Z,46.92
2022-09-13T11:56:27.491Z,47.51
2022-09-13T12:01:40.184Z,47.30
2022-09-13T12:06:47.391Z,45.96
2022-09-13T12:11:54.210Z,47.59
2022-09-13T12:17:04.741Z,46.71
2022-09-13T12:22:09.187Z,49.34
2022-09-13T12:27:23.133Z,51.37
2022-09-13T12:32:29.035Z,48.71
2022-09-13T12:37:50.041Z,49.95
2022-09-13T12:43:13.644Z,50.23
2022-09-13T12:48:40.497Z,51.10
2022-09-13T12:54:02.534Z,52.63
2022-09-13T12:59:28.167Z,53.80
2022-09-13T13:04:37.485Z,54.77
2022-09-13T13:09:44.252Z,58.08
2022-09-13T13:14:53.543Z,56.89
2022-09-13T13:19:57.950Z,54.29
2022-09-13T13:25:36.719Z,51.25
2022-09-13T13:30:44.098Z,53.34
2022-09-13T13:35:49.061Z,52.74
2022-09-13T13:40:54.067Z,53.18
2022-09-13T13:46:16.101Z,55.08
2022-09-13T13:51:26.223Z,59.93
2022-09-13T13:56:50.524Z,61.30
2022-09-13T14:01:59.250Z,62.46
2022-09-13T14:07:19.520Z,61.22
2022-09-13T14:12:33.943Z,61.43
2022-09-13T14:18:14.784Z,61.42
2022-09-13T14:23:20.107Z,61.81
2022-09-13T14:28:24.171Z,61.77
2022-09-13T14:33:32.038Z,61.56
2022-09-13T14:38:37.489Z,63.02
2022-09-13T14:43:40.427Z,63.65
2022-09-13T14:48:50.173Z,62.89
2022-09-13T14:54:00.822Z,62.03
2022-09-13T14:59:06.597Z,61.98
2022-09-13T15:04:10.040Z,62.96
2022-09-13T15:09:28.567Z,63.34
2022-09-13T15:14:32.933Z,62.70
2022-09-13T15:19:41.785Z,62.29
2022-09-13T15:24:48.945Z,62.92
2022-09-13T15:29:53.905Z,63.20
2022-09-13T15:34:58.468Z,64.09
2022-09-13T15:40:16.794Z,65.19
2022-09-13T15:45:20.577Z,66.69
2022-09-13T15:50:26.852Z,66.33
2022-09-13T15:55:32.376Z,64.30
2022-09-13T16:00:36.901Z,63.72
2022-09-13T16:05:39.895Z,63.66
2022-09-13T16:10:44.065Z,62.92
2022-09-13T16:15:47.245Z,63.34
2022-09-13T16:20:51.003Z,62.17
2022-09-13T16:25:58.114Z,62.94
2022-09-13T16:31:00.955Z,62.90
2022-09-13T16:36:04.125Z,62.44
2022-09-13T16:41:08.639Z,62.51
2022-09-13T16:46:13.505Z,62.74
2022-09-13T16:51:16.763Z,63.87
2022-09-13T16:56:22.754Z,63.94
2022-09-13T17:01:27.386Z,64.08
2022-09-13T17:06:30.285Z,65.73
2022-09-13T17:11:36.435Z,66.07
2022-09-13T17:16:41.370Z,67.75
2022-09-13T17:21:44.381Z,69.10
2022-09-13T17:26:48.812Z,69.96
2022-09-13T17:31:51.724Z,70.89
2022-09-13T17:36:54.704Z,72.05
2022-09-13T17:42:06.255Z,73.16
2022-09-13T17:47:09.086Z,73.19
2022-09-13T17:52:12.009Z,73.24
2022-09-13T17:57:16.313Z,73.17
2022-09-13T18:02:19.263Z,73.79
2022-09-13T18:07:22.213Z,73.91
2022-09-13T18:12:26.480Z,74.71
2022-09-13T18:17:29.240Z,75.00
2022-09-13T18:22:34.761Z,74.23
2022-09-13T18:27:38.999Z,74.17
2022-09-13T18:32:41.819Z,73.99
2022-09-13T18:37:44.713Z,73.97
2022-09-13T18:42:48.832Z,73.86
2022-09-13T18:47:51.656Z,73.84
2022-09-13T18:52:54.365Z,73.94
2022-09-13T18:57:58.579Z,74.60
2022-09-13T19:03:11.980Z,76.03
2022-09-13T19:08:15.623Z,76.24
2022-09-13T19:13:19.868Z,76.39
2022-09-13T19:18:22.654Z,76.30
2022-09-13T19:23:37.676Z,75.22
2022-09-13T19:29:00.107Z,74.74
2022-09-13T19:34:04.246Z,74.74
2022-09-13T19:39:08.820Z,75.86
2022-09-13T19:44:20.033Z,76.19
2022-09-13T19:49:23.162Z,75.98
2022-09-13T19:54:28.359Z,75.99
2022-09-13T19:59:42.508Z,76.03
2022-09-13T20:04:47.956Z,75.95
2022-09-13T20:09:51.301Z,76.36
2022-09-13T20:14:55.415Z,76.09
2022-09-13T20:19:58.474Z,76.04
2022-09-13T20:25:01.424Z,76.58
2022-09-13T20:30:06.485Z,76.76
2022-09-13T20:35:11.086Z,76.58
2022-09-13T20:40:15.038Z,77.73
2022-09-13T20:45:19.395Z,77.94
2022-09-13T20:50:22.122Z,78.81
2022-09-13T20:55:25.077Z,79.06
2022-09-13T21:00:29.135Z,80.48
2022-09-13T21:05:32.170Z,81.34
2022-09-13T21:10:35.586Z,83.19
2022-09-13T21:15:40.152Z,83.96
2022-09-13T21:20:42.973Z,84.67
2022-09-13T21:25:46.067Z,84.38
2022-09-13T21:30:58.408Z,84.72
2022-09-13T21:36:02.498Z,83.20
2022-09-13T21:41:07.648Z,81.50
2022-09-13T21:46:16.471Z,80.52
2022-09-13T21:51:21.552Z,81.04
2022-09-13T21:56:26.619Z,81.09
2022-09-13T22:01:33.162Z,82.11
2022-09-13T22:06:36.041Z,83.07
2022-09-13T22:11:43.572Z,84.02
2022-09-13T22:16:47.800Z,84.04
2022-09-13T22:21:54.015Z,83.95
2022-09-13T22:26:58.097Z,85.29
2022-09-13T22:32:02.456Z,85.25
2022-09-13T22:37:05.521Z,86.46
2022-09-13T22:42:08.492Z,88.83
2022-09-13T22:47:12.567Z,89.65
2022-09-13T22:52:15.286Z,91.20
2022-09-13T22:57:18.237Z,92.33
2022-09-13T23:02:22.290Z,93.14
2022-09-13T23:07:25.682Z,94.17
2022-09-13T23:12:30.410Z,94.88
2022-09-13T23:17:34.540Z,96.14
2022-09-13T23:22:37.297Z,96.21
2022-09-13T23:27:40.155Z,96.85
2022-09-13T23:32:47.463Z,98.56
2022-09-13T23:37:50.267Z,99.65
2022-09-13T23:42:52.980Z,100.00
2022-09-13T23:47:57.050Z,100.00
2022-09-13T23:53:00.408Z,100.00
2022-09-13T23:58:03.106Z,100.00
